createdAt,value
2023-03-29T00:00:56.437Z,-1.19
2023-03-29T00:01:56.422Z,-1.19
2023-03-29T00:02:56.643Z,-1.19
2023-03-29T00:03:56.479Z,-1.20
2023-03-29T00:04:56.334Z,-1.22
2023-03-29T00:05:56.348Z,-1.23
2023-03-29T00:06:56.324Z,-1.22
2023-03-29T00:07:56.291Z,-1.20
2023-03-29T00:08:56.327Z,-1.14
2023-03-29T00:09:56.275Z,-1.04
2023-03-29T00:10:56.275Z,-0.94
2023-03-29T00:11:56.249Z,-0.85
2023-03-29T00:12:56.244Z,-0.77
2023-03-29T00:13:56.251Z,-0.71
2023-03-29T00:14:56.228Z,-0.65
2023-03-29T00:15:56.217Z,-0.61
2023-03-29T00:16:56.234Z,-0.60
2023-03-29T00:17:56.274Z,-0.61
2023-03-29T00:18:56.159Z,-0.61
2023-03-29T00:19:56.164Z,-0.60
2023-03-29T00:20:56.130Z,-0.55
2023-03-29T00:21:56.131Z,-0.49
2023-03-29T00:22:56.107Z,-0.44
2023-03-29T00:23:56.088Z,-0.42
2023-03-29T00:24:56.093Z,-0.42
2023-03-29T00:25:56.090Z,-0.43
2023-03-29T00:26:56.036Z,-0.44
2023-03-29T00:27:56.037Z,-0.42
2023-03-29T00:28:56.015Z,-0.38
2023-03-29T00:29:56.079Z,-0.35
2023-03-29T00:30:56.024Z,-0.31
2023-03-29T00:31:56.096Z,-0.27
2023-03-29T00:32:56.057Z,-0.23
2023-03-29T00:33:55.971Z,-0.20
2023-03-29T00:34:55.977Z,-0.19
2023-03-29T00:35:55.998Z,-0.19
2023-03-29T00:36:55.911Z,-0.19
2023-03-29T00:37:55.922Z,-0.20
2023-03-29T00:38:55.905Z,-0.20
2023-03-29T00:39:55.890Z,-0.21
2023-03-29T00:40:55.865Z,-0.22
2023-03-29T00:41:55.896Z,-0.25
2023-03-29T00:42:55.850Z,-0.27
2023-03-29T00:43:55.889Z,-0.29
2023-03-29T00:44:55.839Z,-0.31
2023-03-29T00:45:55.962Z,-0.31
2023-03-29T00:46:55.813Z,-0.30
2023-03-29T00:47:55.868Z,-0.28
2023-03-29T00:48:55.799Z,-0.23
2023-03-29T00:49:55.792Z,-0.17
2023-03-29T00:50:55.763Z,-0.10
2023-03-29T00:51:55.754Z,-0.05
2023-03-29T00:52:55.728Z,-0.02
2023-03-29T00:53:55.701Z,0.00
2023-03-29T00:54:55.692Z,-0.00
2023-03-29T00:55:55.699Z,-0.02
2023-03-29T00:56:55.681Z,-0.02
2023-03-29T00:57:55.711Z,-0.03
2023-03-29T00:58:55.632Z,-0.04
2023-03-29T00:59:55.664Z,-0.05
2023-03-29T01:00:55.653Z,-0.05
2023-03-29T01:01:55.647Z,-0.04
2023-03-29T01:02:55.680Z,-0.04
2023-03-29T01:03:55.643Z,-0.06
2023-03-29T01:04:55.577Z,-0.08
2023-03-29T01:05:55.570Z,-0.10
2023-03-29T01:06:55.654Z,-0.14
2023-03-29T01:07:55.559Z,-0.17
2023-03-29T01:08:55.538Z,-0.21
2023-03-29T01:09:55.513Z,-0.23
2023-03-29T01:10:55.517Z,-0.22
2023-03-29T01:11:55.505Z,-0.18
2023-03-29T01:12:55.478Z,-0.15
2023-03-29T01:13:55.520Z,-0.11
2023-03-29T01:14:55.477Z,-0.07
2023-03-29T01:15:55.498Z,-0.04
2023-03-29T01:16:55.467Z,-0.01
2023-03-29T01:17:55.444Z,0.01
2023-03-29T01:18:55.408Z,0.04
2023-03-29T01:19:55.387Z,0.05
2023-03-29T01:20:55.392Z,0.06
2023-03-29T01:21:55.372Z,0.06
2023-03-29T01:22:55.327Z,0.07
2023-03-29T01:23:55.339Z,0.07
2023-03-29T01:24:55.325Z,0.07
2023-03-29T01:25:55.351Z,0.08
2023-03-29T01:26:55.420Z,0.07
2023-03-29T01:27:55.320Z,0.08
2023-03-29T01:28:55.288Z,0.08
2023-03-29T01:29:55.275Z,0.07
2023-03-29T01:30:55.260Z,0.07
2023-03-29T01:31:55.278Z,0.07
2023-03-29T01:32:55.285Z,0.06
2023-03-29T01:33:55.219Z,0.03
2023-03-29T01:34:55.195Z,0.00
2023-03-29T01:35:55.223Z,-0.02
2023-03-29T01:36:55.196Z,-0.02
2023-03-29T01:37:55.187Z,-0.01
2023-03-29T01:38:55.144Z,-0.00
2023-03-29T01:39:55.143Z,-0.00
2023-03-29T01:40:55.129Z,0.00
2023-03-29T01:41:55.122Z,0.01
2023-03-29T01:42:55.099Z,0.03
2023-03-29T01:43:55.069Z,0.03
2023-03-29T01:44:55.068Z,0.05
2023-03-29T01:45:55.068Z,0.06
2023-03-29T01:46:55.035Z,0.06
2023-03-29T01:47:55.077Z,0.06
2023-03-29T01:48:55.009Z,0.07
2023-03-29T01:49:55.014Z,0.06
2023-03-29T01:50:54.985Z,0.05
2023-03-29T01:51:54.984Z,0.05
2023-03-29T01:52:54.986Z,0.05
2023-03-29T01:53:54.965Z,0.05
2023-03-29T01:54:54.970Z,0.02
2023-03-29T01:55:54.940Z,-0.02
2023-03-29T01:56:54.981Z,-0.07
2023-03-29T01:57:54.911Z,-0.11
2023-03-29T01:58:54.909Z,-0.16
2023-03-29T01:59:54.892Z,-0.20
2023-03-29T02:00:54.920Z,-0.25
2023-03-29T02:01:54.912Z,-0.28
2023-03-29T02:02:54.943Z,-0.31
2023-03-29T02:03:54.826Z,-0.32
2023-03-29T02:04:54.830Z,-0.33
2023-03-29T02:05:54.821Z,-0.34
2023-03-29T02:06:54.799Z,-0.36
2023-03-29T02:07:54.788Z,-0.37
2023-03-29T02:08:54.760Z,-0.38
2023-03-29T02:09:54.768Z,-0.39
2023-03-29T02:10:54.748Z,-0.39
2023-03-29T02:11:54.729Z,-0.38
2023-03-29T02:12:54.725Z,-0.36
2023-03-29T02:13:54.712Z,-0.35
2023-03-29T02:14:54.693Z,-0.35
2023-03-29T02:15:54.748Z,-0.34
2023-03-29T02:16:54.677Z,-0.32
2023-03-29T02:17:54.730Z,-0.31
2023-03-29T02:18:54.633Z,-0.31
2023-03-29T02:19:54.615Z,-0.31
2023-03-29T02:20:54.646Z,-0.31
2023-03-29T02:21:54.589Z,-0.30
2023-03-29T02:22:54.602Z,-0.25
2023-03-29T02:23:54.579Z,-0.18
2023-03-29T02:24:54.579Z,-0.11
2023-03-29T02:25:54.598Z,-0.07
2023-03-29T02:26:54.523Z,-0.02
2023-03-29T02:27:54.535Z,0.01
2023-03-29T02:28:54.524Z,0.02
2023-03-29T02:29:54.488Z,0.03
2023-03-29T02:30:54.569Z,0.03
2023-03-29T02:31:54.476Z,0.03
2023-03-29T02:32:54.458Z,0.04
2023-03-29T02:33:54.438Z,0.04
2023-03-29T02:34:54.437Z,0.04
2023-03-29T02:35:54.493Z,0.04
2023-03-29T02:36:54.442Z,0.04
2023-03-29T02:37:54.426Z,0.04
2023-03-29T02:38:54.401Z,0.05
2023-03-29T02:39:54.387Z,0.06
2023-03-29T02:40:54.359Z,0.07
2023-03-29T02:41:54.360Z,0.07
2023-03-29T02:42:54.331Z,0.07
2023-03-29T02:43:54.337Z,0.08
2023-03-29T02:44:54.322Z,0.10
2023-03-29T02:45:54.338Z,0.12
2023-03-29T02:46:54.349Z,0.13
2023-03-29T02:47:54.361Z,0.12
2023-03-29T02:48:54.250Z,0.10
2023-03-29T02:49:54.263Z,0.09
2023-03-29T02:50:54.254Z,0.08
2023-03-29T02:51:54.250Z,0.07
2023-03-29T02:52:54.233Z,0.07
2023-03-29T02:53:54.246Z,0.06
2023-03-29T02:54:54.192Z,0.04
2023-03-29T02:55:54.214Z,0.01
2023-03-29T02:56:54.174Z,-0.02
2023-03-29T02:57:54.147Z,-0.05
2023-03-29T02:58:54.163Z,-0.07
2023-03-29T02:59:54.151Z,-0.08
2023-03-29T03:00:54.129Z,-0.07
2023-03-29T03:01:54.098Z,-0.05
2023-03-29T03:02:54.139Z,-0.04
2023-03-29T03:03:54.242Z,-0.02
2023-03-29T03:04:54.073Z,-0.01
2023-03-29T03:05:54.043Z,-0.01
2023-03-29T03:06:54.049Z,-0.02
2023-03-29T03:07:54.021Z,-0.04
2023-03-29T03:08:54.044Z,-0.04
2023-03-29T03:09:54.144Z,-0.03
2023-03-29T03:10:53.991Z,-0.03
2023-03-29T03:11:53.990Z,-0.05
2023-03-29T03:12:53.969Z,-0.09
2023-03-29T03:13:53.939Z,-0.12
2023-03-29T03:14:53.963Z,-0.13
2023-03-29T03:15:53.996Z,-0.14
2023-03-29T03:16:53.894Z,-0.16
2023-03-29T03:17:54.005Z,-0.18
2023-03-29T03:18:53.893Z,-0.19
2023-03-29T03:19:53.878Z,-0.19
2023-03-29T03:20:53.860Z,-0.20
2023-03-29T03:21:53.844Z,-0.20
2023-03-29T03:22:53.847Z,-0.21
2023-03-29T03:23:53.810Z,-0.23
2023-03-29T03:24:53.815Z,-0.24
2023-03-29T03:25:53.816Z,-0.26
2023-03-29T03:26:53.789Z,-0.28
2023-03-29T03:27:53.782Z,-0.30
2023-03-29T03:28:53.752Z,-0.32
2023-03-29T03:29:53.758Z,-0.34
2023-03-29T03:30:53.735Z,-0.34
2023-03-29T03:31:54.264Z,-0.33
2023-03-29T03:32:53.756Z,-0.32
2023-03-29T03:33:53.685Z,-0.32
2023-03-29T03:34:53.690Z,-0.32
2023-03-29T03:35:53.670Z,-0.31
2023-03-29T03:36:53.661Z,-0.31
2023-03-29T03:37:53.621Z,-0.32
2023-03-29T03:38:53.621Z,-0.33
2023-03-29T03:39:53.619Z,-0.34
2023-03-29T03:40:53.606Z,-0.34
2023-03-29T03:41:53.580Z,-0.33
2023-03-29T03:42:53.591Z,-0.33
2023-03-29T03:43:53.558Z,-0.33
2023-03-29T03:44:53.619Z,-0.34
2023-03-29T03:45:53.555Z,-0.37
2023-03-29T03:46:53.537Z,-0.40
2023-03-29T03:47:53.586Z,-0.41
2023-03-29T03:48:53.522Z,-0.42
2023-03-29T03:49:53.499Z,-0.42
2023-03-29T03:50:53.475Z,-0.42
2023-03-29T03:51:53.442Z,-0.41
2023-03-29T03:52:53.476Z,-0.40
2023-03-29T03:53:53.416Z,-0.37
2023-03-29T03:54:53.421Z,-0.35
2023-03-29T03:55:53.384Z,-0.35
2023-03-29T03:56:53.418Z,-0.35
2023-03-29T03:57:53.408Z,-0.34
2023-03-29T03:58:53.383Z,-0.33
2023-03-29T03:59:53.369Z,-0.31
2023-03-29T04:00:53.336Z,-0.29
2023-03-29T04:01:53.328Z,-0.28
2023-03-29T04:02:53.355Z,-0.28
2023-03-29T04:03:53.424Z,-0.27
2023-03-29T04:04:53.306Z,-0.27
2023-03-29T04:05:53.268Z,-0.27
2023-03-29T04:06:53.291Z,-0.27
2023-03-29T04:07:53.258Z,-0.27
2023-03-29T04:08:53.255Z,-0.26
2023-03-29T04:09:53.266Z,-0.24
2023-03-29T04:10:53.213Z,-0.24
2023-03-29T04:11:53.223Z,-0.25
2023-03-29T04:12:53.197Z,-0.27
2023-03-29T04:13:53.163Z,-0.28
2023-03-29T04:14:53.186Z,-0.28
2023-03-29T04:15:53.211Z,-0.29
2023-03-29T04:16:53.134Z,-0.29
2023-03-29T04:17:53.203Z,-0.29
2023-03-29T04:18:53.161Z,-0.30
2023-03-29T04:19:53.089Z,-0.29
2023-03-29T04:20:53.115Z,-0.29
2023-03-29T04:21:53.101Z,-0.30
2023-03-29T04:22:53.075Z,-0.32
2023-03-29T04:23:53.083Z,-0.32
2023-03-29T04:24:53.037Z,-0.33
2023-03-29T04:25:53.011Z,-0.34
2023-03-29T04:26:53.039Z,-0.34
2023-03-29T04:27:52.994Z,-0.35
2023-03-29T04:28:52.992Z,-0.37
2023-03-29T04:29:52.987Z,-0.38
2023-03-29T04:30:53.089Z,-0.39
2023-03-29T04:31:53.018Z,-0.40
2023-03-29T04:32:52.983Z,-0.41
2023-03-29T04:33:52.935Z,-0.43
2023-03-29T04:34:52.929Z,-0.44
2023-03-29T04:35:52.931Z,-0.46
2023-03-29T04:36:52.892Z,-0.46
2023-03-29T04:37:52.901Z,-0.47
2023-03-29T04:38:52.912Z,-0.47
2023-03-29T04:39:52.873Z,-0.47
2023-03-29T04:40:52.997Z,-0.47
2023-03-29T04:41:52.843Z,-0.47
2023-03-29T04:42:52.817Z,-0.46
2023-03-29T04:43:52.818Z,-0.46
2023-03-29T04:44:52.841Z,-0.45
2023-03-29T04:45:52.792Z,-0.45
2023-03-29T04:46:52.861Z,-0.44
2023-03-29T04:47:52.789Z,-0.43
2023-03-29T04:48:52.759Z,-0.42
2023-03-29T04:49:52.746Z,-0.41
2023-03-29T04:50:52.732Z,-0.41
2023-03-29T04:51:52.691Z,-0.42
2023-03-29T04:52:52.697Z,-0.45
2023-03-29T04:53:52.731Z,-0.48
2023-03-29T04:54:52.704Z,-0.50
2023-03-29T04:55:52.660Z,-0.51
2023-03-29T04:56:52.691Z,-0.52
2023-03-29T04:57:52.653Z,-0.52
2023-03-29T04:58:52.620Z,-0.51
2023-03-29T04:59:52.586Z,-0.50
2023-03-29T05:00:52.655Z,-0.47
2023-03-29T05:01:52.658Z,-0.45
2023-03-29T05:02:52.567Z,-0.43
2023-03-29T05:03:52.621Z,-0.42
2023-03-29T05:04:52.550Z,-0.41
2023-03-29T05:05:52.533Z,-0.40
2023-03-29T05:06:52.545Z,-0.40
2023-03-29T05:07:52.529Z,-0.38
2023-03-29T05:08:52.549Z,-0.37
2023-03-29T05:09:52.549Z,-0.36
2023-03-29T05:10:52.471Z,-0.36
2023-03-29T05:11:52.501Z,-0.35
2023-03-29T05:12:52.473Z,-0.33
2023-03-29T05:13:52.414Z,-0.31
2023-03-29T05:14:52.464Z,-0.30
2023-03-29T05:15:52.450Z,-0.28
2023-03-29T05:16:52.420Z,-0.26
2023-03-29T05:17:52.465Z,-0.24
2023-03-29T05:18:52.353Z,-0.22
2023-03-29T05:19:52.334Z,-0.20
2023-03-29T05:20:52.325Z,-0.18
2023-03-29T05:21:52.334Z,-0.16
2023-03-29T05:22:52.337Z,-0.15
2023-03-29T05:23:52.309Z,-0.13
2023-03-29T05:24:52.341Z,-0.12
2023-03-29T05:25:52.258Z,-0.09
2023-03-29T05:26:52.265Z,-0.07
2023-03-29T05:27:52.289Z,-0.06
2023-03-29T05:28:52.281Z,-0.04
2023-03-29T05:29:52.244Z,-0.01
2023-03-29T05:30:52.220Z,0.01
2023-03-29T05:31:52.392Z,0.04
2023-03-29T05:32:52.213Z,0.06
2023-03-29T05:33:52.205Z,0.08
2023-03-29T05:34:52.167Z,0.10
2023-03-29T05:35:52.231Z,0.11
2023-03-29T05:36:52.143Z,0.12
2023-03-29T05:37:52.120Z,0.14
2023-03-29T05:38:52.173Z,0.15
2023-03-29T05:39:52.126Z,0.17
2023-03-29T05:40:52.104Z,0.18
2023-03-29T05:41:52.100Z,0.20
2023-03-29T05:42:52.140Z,0.21
2023-03-29T05:43:52.053Z,0.23
2023-03-29T05:44:54.497Z,0.26
2023-03-29T05:45:52.155Z,0.28
2023-03-29T05:46:52.035Z,0.31
2023-03-29T05:47:52.125Z,0.35
2023-03-29T05:48:52.041Z,0.38
2023-03-29T05:49:51.981Z,0.41
2023-03-29T05:50:52.000Z,0.43
2023-03-29T05:51:52.038Z,0.44
2023-03-29T05:52:51.964Z,0.44
2023-03-29T05:53:51.923Z,0.46
2023-03-29T05:54:51.927Z,0.48
2023-03-29T05:55:51.885Z,0.51
2023-03-29T05:56:51.993Z,0.55
2023-03-29T05:57:51.869Z,0.58
2023-03-29T05:58:53.025Z,0.61
2023-03-29T05:59:51.864Z,0.64
2023-03-29T06:00:51.908Z,0.67
2023-03-29T06:01:51.814Z,0.70
2023-03-29T06:02:51.886Z,0.73
2023-03-29T06:03:51.921Z,0.76
2023-03-29T06:04:51.817Z,0.77
2023-03-29T06:05:51.767Z,0.78
2023-03-29T06:06:51.741Z,0.79
2023-03-29T06:07:51.735Z,0.82
2023-03-29T06:08:51.704Z,0.85
2023-03-29T06:09:51.751Z,0.89
2023-03-29T06:10:51.709Z,0.93
2023-03-29T06:11:51.696Z,0.96
2023-03-29T06:12:51.683Z,0.97
2023-03-29T06:13:51.658Z,0.98
2023-03-29T06:14:51.659Z,0.99
2023-03-29T06:15:51.721Z,1.02
2023-03-29T06:16:51.680Z,1.05
2023-03-29T06:17:51.702Z,1.07
2023-03-29T06:18:51.600Z,1.09
2023-03-29T06:19:51.555Z,1.10
2023-03-29T06:20:51.546Z,1.12
2023-03-29T06:21:51.524Z,1.16
2023-03-29T06:22:51.538Z,1.19
2023-03-29T06:23:51.532Z,1.21
2023-03-29T06:24:51.511Z,1.23
2023-03-29T06:25:51.569Z,1.26
2023-03-29T06:26:51.489Z,1.29
2023-03-29T06:27:51.450Z,1.33
2023-03-29T06:28:52.379Z,1.36
2023-03-29T06:29:51.432Z,1.40
2023-03-29T06:30:51.480Z,1.41
2023-03-29T06:31:51.439Z,1.43
2023-03-29T06:32:51.420Z,1.47
2023-03-29T06:33:51.385Z,1.51
2023-03-29T06:34:51.357Z,1.54
2023-03-29T06:35:51.386Z,1.56
2023-03-29T06:36:51.345Z,1.60
2023-03-29T06:37:51.337Z,1.65
2023-03-29T06:38:51.319Z,1.69
2023-03-29T06:39:52.820Z,1.73
2023-03-29T06:40:51.313Z,1.76
2023-03-29T06:41:51.288Z,1.76
2023-03-29T06:42:51.293Z,1.75
2023-03-29T06:43:51.246Z,1.77
2023-03-29T06:44:51.230Z,1.83
2023-03-29T06:45:51.233Z,1.89
2023-03-29T06:46:51.263Z,1.96
2023-03-29T06:47:51.249Z,2.00
2023-03-29T06:48:51.189Z,1.99
2023-03-29T06:49:51.163Z,1.93
2023-03-29T06:50:51.171Z,1.87
2023-03-29T06:51:51.150Z,1.84
2023-03-29T06:52:51.127Z,1.84
2023-03-29T06:53:51.152Z,1.89
2023-03-29T06:54:51.097Z,1.94
2023-03-29T06:55:51.091Z,1.99
2023-03-29T06:56:51.127Z,2.04
2023-03-29T06:57:51.095Z,2.06
2023-03-29T06:58:51.070Z,2.08
2023-03-29T06:59:51.039Z,2.11
2023-03-29T07:00:51.051Z,2.13
2023-03-29T07:01:51.061Z,2.13
2023-03-29T07:02:51.047Z,2.13
2023-03-29T07:03:51.029Z,2.14
2023-03-29T07:04:51.126Z,2.18
2023-03-29T07:05:50.978Z,2.22
2023-03-29T07:06:50.950Z,2.28
2023-03-29T07:07:50.929Z,2.37
2023-03-29T07:08:50.915Z,2.44
2023-03-29T07:09:50.932Z,2.49
2023-03-29T07:10:50.912Z,2.53
2023-03-29T07:11:50.896Z,2.57
2023-03-29T07:12:50.900Z,2.58
2023-03-29T07:13:50.888Z,2.59
2023-03-29T07:14:50.862Z,2.59
2023-03-29T07:15:50.860Z,2.59
2023-03-29T07:16:50.814Z,2.59
2023-03-29T07:17:50.839Z,2.56
2023-03-29T07:18:50.804Z,2.55
2023-03-29T07:19:50.788Z,2.54
2023-03-29T07:20:50.791Z,2.55
2023-03-29T07:21:50.951Z,2.59
2023-03-29T07:22:50.769Z,2.64
2023-03-29T07:23:50.717Z,2.71
2023-03-29T07:24:50.743Z,2.79
2023-03-29T07:25:50.712Z,2.87
2023-03-29T07:27:03.302Z,2.95
2023-03-29T07:27:50.719Z,3.01
2023-03-29T07:28:50.699Z,3.03
2023-03-29T07:29:50.794Z,3.04
2023-03-29T07:30:50.657Z,3.04
2023-03-29T07:31:50.692Z,3.06
2023-03-29T07:32:50.715Z,3.12
2023-03-29T07:33:50.669Z,3.17
2023-03-29T07:34:50.602Z,3.21
2023-03-29T07:35:50.586Z,3.22
2023-03-29T07:36:50.573Z,3.24
2023-03-29T07:37:50.605Z,3.29
2023-03-29T07:38:50.572Z,3.38
2023-03-29T07:39:50.540Z,3.51
2023-03-29T07:40:50.513Z,3.65
2023-03-29T07:41:50.530Z,3.74
2023-03-29T07:42:50.471Z,3.80
2023-03-29T07:43:50.476Z,3.87
2023-03-29T07:44:50.458Z,3.97
2023-03-29T07:45:50.491Z,3.99
2023-03-29T07:46:50.474Z,4.00
2023-03-29T07:47:50.445Z,4.02
2023-03-29T07:48:50.429Z,4.04
2023-03-29T07:49:50.417Z,4.06
2023-03-29T07:50:50.424Z,4.06
2023-03-29T07:51:50.386Z,4.09
2023-03-29T07:52:50.393Z,4.17
2023-03-29T07:53:50.376Z,4.24
2023-03-29T07:54:50.356Z,4.27
2023-03-29T07:55:50.362Z,4.30
2023-03-29T07:56:50.316Z,4.33
2023-03-29T07:57:50.297Z,4.38
2023-03-29T07:58:50.302Z,4.42
2023-03-29T07:59:50.308Z,4.48
2023-03-29T08:00:50.248Z,4.57
2023-03-29T08:01:50.238Z,4.66
2023-03-29T08:02:50.217Z,4.73
2023-03-29T08:03:50.219Z,4.82
2023-03-29T08:04:50.231Z,4.88
2023-03-29T08:05:50.177Z,4.91
2023-03-29T08:06:50.149Z,4.93
2023-03-29T08:07:50.170Z,4.97
2023-03-29T08:08:50.134Z,5.01
2023-03-29T08:09:50.116Z,5.06
2023-03-29T08:10:50.124Z,5.13
2023-03-29T08:11:50.097Z,5.15
2023-03-29T08:12:50.090Z,5.21
2023-03-29T08:13:50.074Z,5.31
2023-03-29T08:14:50.070Z,5.36
2023-03-29T08:15:50.093Z,5.39
2023-03-29T08:16:50.057Z,5.42
2023-03-29T08:17:50.075Z,5.51
2023-03-29T08:18:50.040Z,5.66
2023-03-29T08:19:51.034Z,5.75
2023-03-29T08:20:49.978Z,5.81
2023-03-29T08:21:49.958Z,5.91
2023-03-29T08:22:49.948Z,5.99
2023-03-29T08:23:49.938Z,6.03
2023-03-29T08:24:49.919Z,6.09
2023-03-29T08:25:49.929Z,6.21
2023-03-29T08:26:49.908Z,6.28
2023-03-29T08:27:49.904Z,6.28
2023-03-29T08:28:49.933Z,6.24
2023-03-29T08:29:49.860Z,6.27
2023-03-29T08:30:49.921Z,6.36
2023-03-29T08:31:49.858Z,6.39
2023-03-29T08:32:52.147Z,6.41
2023-03-29T08:33:49.844Z,6.45
2023-03-29T08:34:49.813Z,6.41
2023-03-29T08:35:49.824Z,6.33
2023-03-29T08:36:49.815Z,6.31
2023-03-29T08:37:49.782Z,6.30
2023-03-29T08:38:49.731Z,6.27
2023-03-29T08:39:49.753Z,6.30
2023-03-29T08:40:49.743Z,6.42
2023-03-29T08:41:49.712Z,6.59
2023-03-29T08:42:49.698Z,6.76
2023-03-29T08:43:49.705Z,6.86
2023-03-29T08:44:49.664Z,6.89
2023-03-29T08:45:51.047Z,6.92
2023-03-29T08:46:49.741Z,6.95
2023-03-29T08:47:49.683Z,6.96
2023-03-29T08:48:49.656Z,7.01
2023-03-29T08:49:49.609Z,7.07
2023-03-29T08:50:49.587Z,7.17
2023-03-29T08:51:49.602Z,7.27
2023-03-29T08:52:49.555Z,7.33
2023-03-29T08:53:49.547Z,7.42
2023-03-29T08:54:49.550Z,7.49
2023-03-29T08:55:49.522Z,7.47
2023-03-29T08:56:49.537Z,7.52
2023-03-29T08:57:49.505Z,7.70
2023-03-29T08:58:49.474Z,7.88
2023-03-29T08:59:49.477Z,8.00
2023-03-29T09:00:49.492Z,8.07
2023-03-29T09:01:49.463Z,8.23
2023-03-29T09:02:49.513Z,8.41
2023-03-29T09:03:49.499Z,8.58
2023-03-29T09:04:49.413Z,8.73
2023-03-29T09:05:49.406Z,8.74
2023-03-29T09:06:49.366Z,8.67
2023-03-29T09:07:49.370Z,8.67
2023-03-29T09:08:49.365Z,8.72
2023-03-29T09:09:49.365Z,8.67
2023-03-29T09:10:49.302Z,8.51
2023-03-29T09:11:49.336Z,8.35
2023-03-29T09:12:49.296Z,8.27
2023-03-29T09:13:49.286Z,8.33
2023-03-29T09:14:49.273Z,8.52
2023-03-29T09:15:49.296Z,8.67
2023-03-29T09:16:49.267Z,8.67
2023-03-29T09:17:49.803Z,8.74
2023-03-29T09:18:49.230Z,9.01
2023-03-29T09:19:49.221Z,9.36
2023-03-29T09:20:49.187Z,9.63
2023-03-29T09:21:49.189Z,9.87
2023-03-29T09:22:49.180Z,10.01
2023-03-29T09:23:49.160Z,10.08
2023-03-29T09:24:49.132Z,10.19
2023-03-29T09:25:53.566Z,10.28
2023-03-29T09:26:49.124Z,10.30
2023-03-29T09:27:49.105Z,10.16
2023-03-29T09:28:49.098Z,9.84
2023-03-29T09:29:49.091Z,9.49
2023-03-29T09:30:49.058Z,9.16
2023-03-29T09:31:49.094Z,8.83
2023-03-29T09:32:49.070Z,8.61
2023-03-29T09:33:49.005Z,8.58
2023-03-29T09:34:48.985Z,8.64
2023-03-29T09:35:49.015Z,8.81
2023-03-29T09:36:48.973Z,9.06
2023-03-29T09:37:48.964Z,9.32
2023-03-29T09:38:48.937Z,9.48
2023-03-29T09:39:48.936Z,9.57
2023-03-29T09:40:48.949Z,9.48
2023-03-29T09:41:48.897Z,9.33
2023-03-29T09:42:48.910Z,9.37
2023-03-29T09:43:48.901Z,9.54
2023-03-29T09:44:48.904Z,9.76
2023-03-29T09:45:48.897Z,10.00
2023-03-29T09:46:48.836Z,10.20
2023-03-29T09:47:48.864Z,10.53
2023-03-29T09:48:48.813Z,11.01
2023-03-29T09:49:48.822Z,11.54
2023-03-29T09:50:48.798Z,11.85
2023-03-29T09:51:48.760Z,11.74
2023-03-29T09:52:48.739Z,11.40
2023-03-29T09:53:48.747Z,10.89
2023-03-29T09:54:48.774Z,10.41
2023-03-29T09:55:50.385Z,9.94
2023-03-29T09:56:48.735Z,9.57
2023-03-29T09:57:48.691Z,9.58
2023-03-29T09:58:48.685Z,9.75
2023-03-29T09:59:48.662Z,9.87
2023-03-29T10:00:48.752Z,9.95
2023-03-29T10:01:48.655Z,10.08
2023-03-29T10:02:48.648Z,10.29
2023-03-29T10:03:48.628Z,10.43
2023-03-29T10:04:48.610Z,10.53
2023-03-29T10:05:48.594Z,10.71
2023-03-29T10:06:48.567Z,11.07
2023-03-29T10:07:48.564Z,11.58
2023-03-29T10:08:48.551Z,11.86
2023-03-29T10:09:48.569Z,11.78
2023-03-29T10:10:48.514Z,11.63
2023-03-29T10:11:48.535Z,11.41
2023-03-29T10:12:48.497Z,11.23
2023-03-29T10:13:48.479Z,11.08
2023-03-29T10:14:48.651Z,10.86
2023-03-29T10:15:48.443Z,10.66
2023-03-29T10:16:48.465Z,10.45
2023-03-29T10:17:48.490Z,10.31
2023-03-29T10:18:48.427Z,10.44
2023-03-29T10:19:48.394Z,10.64
2023-03-29T10:20:48.393Z,10.83
2023-03-29T10:21:48.365Z,10.97
2023-03-29T10:22:48.362Z,11.10
2023-03-29T10:23:48.345Z,11.17
2023-03-29T10:24:48.321Z,10.92
2023-03-29T10:25:48.342Z,10.42
2023-03-29T10:26:48.295Z,10.02
2023-03-29T10:27:48.328Z,9.99
2023-03-29T10:28:48.273Z,10.32
2023-03-29T10:29:48.291Z,10.57
2023-03-29T10:30:48.254Z,10.54
2023-03-29T10:31:48.256Z,10.36
2023-03-29T10:32:48.287Z,10.17
2023-03-29T10:33:48.251Z,10.21
2023-03-29T10:34:48.199Z,10.55
2023-03-29T10:35:48.236Z,10.96
2023-03-29T10:36:48.195Z,11.14
2023-03-29T10:37:48.163Z,11.09
2023-03-29T10:38:48.152Z,10.90
2023-03-29T10:39:48.143Z,10.63
2023-03-29T10:40:48.136Z,10.31
2023-03-29T10:41:48.107Z,9.97
2023-03-29T10:42:48.092Z,9.66
2023-03-29T10:43:48.095Z,9.64
2023-03-29T10:44:48.088Z,9.99
2023-03-29T10:45:48.096Z,10.51
2023-03-29T10:46:48.081Z,11.17
2023-03-29T10:47:48.074Z,11.75
2023-03-29T10:48:48.039Z,11.98
2023-03-29T10:49:48.187Z,12.08
2023-03-29T10:50:48.029Z,12.11
2023-03-29T10:51:47.976Z,11.84
2023-03-29T10:52:47.974Z,11.32
2023-03-29T10:53:47.966Z,10.81
2023-03-29T10:54:47.944Z,10.47
2023-03-29T10:55:47.957Z,10.26
2023-03-29T10:56:47.962Z,10.07
2023-03-29T10:57:47.940Z,9.88
2023-03-29T10:58:47.903Z,9.76
2023-03-29T10:59:47.880Z,9.75
2023-03-29T11:00:47.866Z,9.77
2023-03-29T11:01:47.896Z,9.81
2023-03-29T11:02:47.891Z,9.91
2023-03-29T11:03:47.923Z,10.00
2023-03-29T11:04:47.813Z,10.01
2023-03-29T11:05:47.817Z,9.91
2023-03-29T11:06:47.780Z,9.86
2023-03-29T11:07:47.807Z,10.03
2023-03-29T11:08:47.781Z,10.38
2023-03-29T11:09:47.760Z,10.64
2023-03-29T11:10:48.961Z,10.63
2023-03-29T11:11:47.721Z,10.48
2023-03-29T11:12:47.717Z,10.35
2023-03-29T11:13:47.699Z,10.18
2023-03-29T11:14:47.662Z,9.97
2023-03-29T11:15:47.687Z,9.78
2023-03-29T11:16:47.641Z,9.69
2023-03-29T11:17:47.757Z,9.66
2023-03-29T11:18:47.632Z,9.60
2023-03-29T11:19:47.619Z,9.55
2023-03-29T11:20:47.593Z,9.56
2023-03-29T11:21:47.568Z,9.61
2023-03-29T11:22:47.591Z,9.65
2023-03-29T11:23:47.608Z,9.72
2023-03-29T11:24:47.536Z,9.84
2023-03-29T11:25:47.544Z,9.96
2023-03-29T11:26:47.538Z,10.07
2023-03-29T11:27:47.523Z,10.14
2023-03-29T11:28:47.494Z,10.15
2023-03-29T11:29:47.460Z,10.10
2023-03-29T11:30:47.731Z,9.99
2023-03-29T11:31:47.465Z,9.90
2023-03-29T11:32:47.512Z,9.78
2023-03-29T11:33:47.471Z,9.69
2023-03-29T11:34:47.417Z,9.70
2023-03-29T11:35:47.425Z,9.66
2023-03-29T11:36:47.473Z,9.57
2023-03-29T11:37:47.543Z,9.56
2023-03-29T11:38:47.459Z,9.64
2023-03-29T11:39:47.337Z,9.70
2023-03-29T11:40:47.421Z,9.68
2023-03-29T11:41:47.342Z,9.69
2023-03-29T11:42:47.308Z,9.78
2023-03-29T11:43:47.266Z,9.82
2023-03-29T11:44:47.250Z,9.77
2023-03-29T11:45:47.274Z,9.71
2023-03-29T11:46:47.266Z,9.72
2023-03-29T11:47:47.335Z,9.75
2023-03-29T11:48:47.212Z,9.72
2023-03-29T11:49:47.211Z,9.64
2023-03-29T11:50:47.191Z,9.59
2023-03-29T11:51:47.182Z,9.63
2023-03-29T11:52:47.184Z,9.65
2023-03-29T11:53:47.167Z,9.69
2023-03-29T11:54:47.131Z,9.72
2023-03-29T11:55:47.127Z,9.67
2023-03-29T11:56:47.143Z,9.56
2023-03-29T11:57:47.115Z,9.53
2023-03-29T11:58:47.089Z,9.60
2023-03-29T11:59:47.086Z,9.70
2023-03-29T12:00:47.073Z,9.80
2023-03-29T12:01:47.090Z,9.91
2023-03-29T12:02:47.232Z,9.92
2023-03-29T12:03:47.467Z,9.90
2023-03-29T12:04:47.051Z,9.90
2023-03-29T12:05:47.008Z,9.97
2023-03-29T12:06:46.965Z,10.06
2023-03-29T12:07:46.991Z,10.10
2023-03-29T12:08:47.033Z,10.12
2023-03-29T12:09:46.954Z,10.09
2023-03-29T12:10:46.945Z,10.10
2023-03-29T12:11:46.893Z,10.20
2023-03-29T12:12:46.890Z,10.39
2023-03-29T12:13:46.866Z,10.64
2023-03-29T12:14:46.874Z,10.93
2023-03-29T12:15:46.848Z,11.14
2023-03-29T12:16:46.900Z,11.28
2023-03-29T12:17:46.926Z,11.46
2023-03-29T12:18:46.895Z,11.63
2023-03-29T12:19:46.798Z,11.78
2023-03-29T12:20:46.773Z,11.82
2023-03-29T12:21:46.775Z,11.63
2023-03-29T12:22:46.792Z,11.29
2023-03-29T12:23:46.775Z,10.94
2023-03-29T12:24:46.740Z,10.66
2023-03-29T12:25:46.703Z,10.53
2023-03-29T12:26:46.742Z,10.48
2023-03-29T12:27:46.696Z,10.53
2023-03-29T12:28:46.699Z,10.74
2023-03-29T12:29:46.691Z,11.06
2023-03-29T12:30:46.661Z,11.33
2023-03-29T12:31:46.672Z,11.40
2023-03-29T12:32:46.750Z,11.39
2023-03-29T12:33:46.684Z,11.31
2023-03-29T12:34:46.608Z,11.17
2023-03-29T12:35:46.621Z,10.93
2023-03-29T12:36:46.591Z,10.66
2023-03-29T12:37:46.577Z,10.52
2023-03-29T12:38:46.545Z,10.40
2023-03-29T12:39:46.555Z,10.31
2023-03-29T12:40:46.534Z,10.31
2023-03-29T12:41:46.493Z,10.34
2023-03-29T12:42:46.493Z,10.33
2023-03-29T12:43:46.493Z,10.22
2023-03-29T12:44:46.475Z,10.09
2023-03-29T12:45:46.535Z,10.08
2023-03-29T12:46:46.503Z,10.14
2023-03-29T12:47:46.484Z,10.22
2023-03-29T12:48:46.409Z,10.21
2023-03-29T12:49:46.418Z,10.14
2023-03-29T12:50:46.410Z,10.10
2023-03-29T12:51:46.421Z,10.05
2023-03-29T12:52:46.363Z,9.96
2023-03-29T12:53:46.380Z,9.84
2023-03-29T12:54:46.349Z,9.79
2023-03-29T12:55:46.362Z,9.85
2023-03-29T12:56:46.374Z,10.01
2023-03-29T12:57:46.302Z,10.21
2023-03-29T12:58:46.299Z,10.48
2023-03-29T12:59:46.291Z,10.74
2023-03-29T13:00:46.351Z,10.82
2023-03-29T13:01:46.413Z,10.77
2023-03-29T13:02:46.370Z,10.73
2023-03-29T13:03:46.249Z,10.69
2023-03-29T13:04:46.243Z,10.58
2023-03-29T13:05:46.311Z,10.41